Weather at Schleicher County Medical Center Helipad

Public forecast

Using degrees Fahrenheit for public forecast. Weather courtesy of forecast.io.

Closest aviation weather report (METAR) to Schleicher County Medical Center Helipad

Closest report is Sonora Municipal Airport, 17.3 nm (32.1 km) S. Retrieved 2022/06/24 21:35 UTC (7 minutes ago):

KSOA 242135Z AUTO 13007G17KT 10SM CLR 36/10 A2994 RMK AO2

Closest aviation forecast (TAF) to Schleicher County Medical Center Helipad

Closest forecast is Sonora Municipal Airport, 17.3 nm (32.1 km) S. Retrieved 2022/06/24 18:45 UTC (3 hours ago):

TAF KSOA 241742Z 2418/2518 17010G16KT P6SM SKC FM242300 17006KT P6SM SKC